createdAt,value
2018-06-27T00:00:23.690Z,61.36
2018-06-27T00:02:54.850Z,60.77
2018-06-27T00:05:33.361Z,60.83
2018-06-27T00:08:08.205Z,60.79
2018-06-27T00:10:38.513Z,60.50
2018-06-27T00:13:09.551Z,61.07
2018-06-27T00:15:40.291Z,61.20
2018-06-27T00:18:11.039Z,60.32
2018-06-27T00:20:41.288Z,60.79
2018-06-27T00:23:11.801Z,61.28
2018-06-27T00:25:42.763Z,61.16
2018-06-27T00:28:13.645Z,61.37
2018-06-27T00:30:43.860Z,61.50
2018-06-27T00:33:14.143Z,60.69
2018-06-27T00:35:44.399Z,60.87
2018-06-27T00:38:18.687Z,61.11
2018-06-27T00:40:49.012Z,61.30
2018-06-27T00:43:19.218Z,61.34
2018-06-27T00:45:51.429Z,60.67
2018-06-27T00:48:22.809Z,61.33
2018-06-27T00:50:54.969Z,61.39
2018-06-27T00:53:29.896Z,60.86
2018-06-27T00:58:42.654Z,60.45
2018-06-27T01:01:14.228Z,60.06
2018-06-27T01:03:45.986Z,59.87
2018-06-27T01:06:16.364Z,60.31
2018-06-27T01:08:47.302Z,60.35
2018-06-27T01:11:18.194Z,59.97
2018-06-27T01:13:49.012Z,60.80
2018-06-27T01:16:19.625Z,61.29
2018-06-27T01:18:50.974Z,61.04
2018-06-27T01:21:23.601Z,62.00
2018-06-27T01:23:54.585Z,61.84
2018-06-27T01:26:30.349Z,62.47
2018-06-27T01:29:15.228Z,63.49
2018-06-27T01:31:46.858Z,63.31
2018-06-27T01:34:18.253Z,63.71
2018-06-27T01:36:51.527Z,63.30
2018-06-27T01:39:22.479Z,63.63
2018-06-27T01:41:54.057Z,63.10
2018-06-27T01:44:25.663Z,64.32
2018-06-27T01:46:56.550Z,64.38
2018-06-27T01:49:30.072Z,64.71
2018-06-27T01:52:02.630Z,64.53
2018-06-27T01:54:35.630Z,64.57
2018-06-27T01:57:12.702Z,64.36
2018-06-27T01:59:44.238Z,64.35
2018-06-27T02:02:15.492Z,64.91
2018-06-27T02:04:45.754Z,64.72
2018-06-27T02:07:17.975Z,64.80
2018-06-27T02:09:49.405Z,65.88
2018-06-27T02:12:28.084Z,66.14
2018-06-27T02:15:00.565Z,66.38
2018-06-27T02:17:35.690Z,65.61
2018-06-27T02:20:11.727Z,65.85
2018-06-27T02:22:45.285Z,65.08
2018-06-27T02:25:21.507Z,64.93
2018-06-27T02:27:53.108Z,65.34
2018-06-27T02:30:24.596Z,64.79
2018-06-27T02:32:56.728Z,64.44
2018-06-27T02:35:28.568Z,64.29
2018-06-27T02:38:01.589Z,64.48
2018-06-27T02:40:33.391Z,64.17
2018-06-27T02:43:04.687Z,64.01
2018-06-27T02:45:36.531Z,64.34
2018-06-27T02:48:10.259Z,63.72
2018-06-27T02:50:41.685Z,64.20
2018-06-27T02:53:17.246Z,63.65
2018-06-27T02:55:51.180Z,64.25
2018-06-27T02:58:26.247Z,64.36
2018-06-27T03:00:58.800Z,64.44
2018-06-27T03:03:29.528Z,63.82
2018-06-27T03:06:01.404Z,63.40
2018-06-27T03:08:34.481Z,63.37
2018-06-27T03:11:09.625Z,63.94
2018-06-27T03:13:49.960Z,63.34
2018-06-27T03:16:21.320Z,63.60
2018-06-27T03:18:57.256Z,64.46
2018-06-27T03:21:30.332Z,64.17
2018-06-27T03:24:02.865Z,63.81
2018-06-27T03:26:34.557Z,64.66
2018-06-27T03:31:48.679Z,64.26
2018-06-27T03:34:21.028Z,64.68
2018-06-27T03:36:54.514Z,64.11
2018-06-27T03:39:28.172Z,64.41
2018-06-27T03:42:01.150Z,64.24
2018-06-27T03:44:33.503Z,64.59
2018-06-27T03:47:04.926Z,64.13
2018-06-27T03:49:37.594Z,64.24
2018-06-27T03:52:12.630Z,64.58
2018-06-27T03:54:44.424Z,64.03
2018-06-27T03:57:18.172Z,64.08
2018-06-27T03:59:49.408Z,63.38
2018-06-27T04:02:21.656Z,63.27
2018-06-27T04:04:53.556Z,62.96
2018-06-27T04:07:24.739Z,61.94
2018-06-27T04:09:57.829Z,62.25
2018-06-27T04:12:30.927Z,61.67
2018-06-27T04:15:05.325Z,61.68
2018-06-27T04:17:37.193Z,60.65
2018-06-27T04:20:20.274Z,60.32
2018-06-27T04:22:54.200Z,60.59
2018-06-27T04:25:27.535Z,59.68
2018-06-27T04:27:59.477Z,59.73
2018-06-27T04:30:31.693Z,59.90
2018-06-27T04:33:04.148Z,58.28
2018-06-27T04:35:35.169Z,58.23
2018-06-27T04:38:08.503Z,57.18
2018-06-27T04:40:39.233Z,56.65
2018-06-27T04:43:11.814Z,57.23
2018-06-27T04:45:48.164Z,57.41
2018-06-27T04:48:28.234Z,56.80
2018-06-27T04:50:59.479Z,56.66
2018-06-27T04:53:31.538Z,56.38
2018-06-27T04:56:03.588Z,55.52
2018-06-27T04:58:39.408Z,55.57
2018-06-27T05:01:12.649Z,54.21
2018-06-27T05:03:44.747Z,54.48
2018-06-27T05:06:16.476Z,53.69
2018-06-27T05:08:50.617Z,53.02
2018-06-27T05:11:23.189Z,53.85
2018-06-27T05:13:55.904Z,52.86
2018-06-27T05:16:28.748Z,52.66
2018-06-27T05:19:02.975Z,51.05
2018-06-27T05:21:44.571Z,50.53
2018-06-27T05:24:23.648Z,50.71
2018-06-27T05:26:54.110Z,50.30
2018-06-27T05:29:25.837Z,50.69
2018-06-27T05:32:00.906Z,49.73
2018-06-27T05:34:31.528Z,48.20
2018-06-27T05:37:03.428Z,48.27
2018-06-27T05:39:36.790Z,46.98
2018-06-27T05:42:10.078Z,47.27
2018-06-27T05:44:41.425Z,47.62
2018-06-27T05:47:13.229Z,46.63
2018-06-27T05:49:46.827Z,45.73
2018-06-27T05:52:22.416Z,46.00
2018-06-27T05:54:57.939Z,44.09
2018-06-27T05:57:31.723Z,44.42
2018-06-27T06:00:06.145Z,44.64
2018-06-27T06:02:39.809Z,43.73
2018-06-27T06:05:11.405Z,43.33
2018-06-27T06:07:42.290Z,43.79
2018-06-27T06:10:13.648Z,43.65
2018-06-27T06:12:48.086Z,42.61
2018-06-27T06:15:22.853Z,42.35
2018-06-27T06:17:54.880Z,41.66
2018-06-27T06:20:29.506Z,42.74
2018-06-27T06:23:01.659Z,43.96
2018-06-27T06:25:33.513Z,44.09
2018-06-27T06:28:05.679Z,42.64
2018-06-27T06:30:39.811Z,41.25
2018-06-27T06:33:11.407Z,39.89
2018-06-27T06:35:42.815Z,41.36
2018-06-27T06:38:17.799Z,38.99
2018-06-27T06:40:49.169Z,40.43
2018-06-27T06:43:25.261Z,40.10
2018-06-27T06:45:59.558Z,39.80
2018-06-27T06:48:32.550Z,39.11
2018-06-27T06:51:04.701Z,40.46
2018-06-27T06:53:45.457Z,41.13
2018-06-27T06:56:35.402Z,40.15
2018-06-27T06:59:07.892Z,39.77
2018-06-27T07:01:41.565Z,40.38
2018-06-27T07:04:12.976Z,40.26
2018-06-27T07:06:43.252Z,37.94
2018-06-27T07:09:17.557Z,38.04
2018-06-27T07:11:52.724Z,34.86
2018-06-27T07:14:28.187Z,32.89
2018-06-27T07:17:02.231Z,33.48
2018-06-27T07:19:35.083Z,35.41
2018-06-27T07:22:08.801Z,34.57
2018-06-27T07:24:41.538Z,35.54
2018-06-27T07:27:12.524Z,35.79
2018-06-27T07:29:45.118Z,35.07
2018-06-27T07:32:17.005Z,35.92
2018-06-27T07:34:49.268Z,34.75
2018-06-27T07:37:31.108Z,34.44
2018-06-27T07:40:03.878Z,34.65
2018-06-27T07:42:36.150Z,34.56
2018-06-27T07:45:07.967Z,34.25
2018-06-27T07:47:43.336Z,34.13
2018-06-27T07:50:17.273Z,35.25
2018-06-27T07:55:25.592Z,34.81
2018-06-27T07:57:56.022Z,33.89
2018-06-27T08:00:28.377Z,34.87
2018-06-27T08:02:59.120Z,34.42
2018-06-27T08:05:30.184Z,33.14
2018-06-27T08:08:03.486Z,32.90
2018-06-27T08:10:36.300Z,33.05
2018-06-27T08:13:06.682Z,33.09
2018-06-27T08:15:40.682Z,33.35
2018-06-27T08:18:14.171Z,33.18
2018-06-27T08:20:52.465Z,32.78
2018-06-27T08:26:03.346Z,33.02
2018-06-27T08:28:34.259Z,32.65
2018-06-27T08:31:06.915Z,33.72
2018-06-27T08:33:38.216Z,33.35
2018-06-27T08:36:11.121Z,32.97
2018-06-27T08:38:48.858Z,32.13
2018-06-27T08:41:20.772Z,32.62
2018-06-27T08:43:51.352Z,31.89
2018-06-27T08:46:25.905Z,32.25
2018-06-27T08:48:56.722Z,31.31
2018-06-27T08:51:39.566Z,31.70
2018-06-27T08:54:10.376Z,32.31
2018-06-27T08:56:42.408Z,32.54
2018-06-27T08:59:12.799Z,32.66
2018-06-27T09:01:46.765Z,31.66
2018-06-27T09:04:19.920Z,31.97
2018-06-27T09:06:51.426Z,32.95
2018-06-27T09:09:24.219Z,32.71
2018-06-27T09:11:57.907Z,32.07
2018-06-27T09:14:30.070Z,32.01
2018-06-27T09:17:04.343Z,32.97
2018-06-27T09:19:49.187Z,32.98
2018-06-27T09:22:20.562Z,33.67
2018-06-27T09:24:53.196Z,33.30
2018-06-27T09:27:24.541Z,33.35
2018-06-27T09:29:56.541Z,31.82
2018-06-27T09:32:28.326Z,31.96
2018-06-27T09:34:59.737Z,33.11
2018-06-27T09:37:30.820Z,33.48
2018-06-27T09:40:02.099Z,32.87
2018-06-27T09:42:36.186Z,32.94
2018-06-27T09:45:09.466Z,32.36
2018-06-27T09:47:44.470Z,31.39
2018-06-27T09:50:18.739Z,31.35
2018-06-27T09:52:50.521Z,31.97
2018-06-27T09:55:21.764Z,31.59
2018-06-27T09:58:00.828Z,33.07
2018-06-27T10:00:42.401Z,30.82
2018-06-27T10:03:27.212Z,30.08
2018-06-27T10:06:00.455Z,30.47
2018-06-27T10:08:47.465Z,29.22
2018-06-27T10:11:29.385Z,30.37
2018-06-27T10:14:01.427Z,29.84
2018-06-27T10:16:57.576Z,29.82
2018-06-27T10:19:48.101Z,30.19
2018-06-27T10:22:22.387Z,29.81
2018-06-27T10:25:13.534Z,29.59
2018-06-27T10:28:03.508Z,29.79
2018-06-27T10:30:41.565Z,30.23
2018-06-27T10:36:20.101Z,30.86
2018-06-27T10:38:53.840Z,31.92
2018-06-27T10:41:25.913Z,31.40
2018-06-27T10:43:58.140Z,31.25
2018-06-27T10:46:28.997Z,31.32
2018-06-27T10:49:03.348Z,31.33
2018-06-27T10:51:40.473Z,30.12
2018-06-27T10:54:11.915Z,31.03
2018-06-27T10:56:43.436Z,30.32
2018-06-27T10:59:14.435Z,30.64
2018-06-27T11:01:45.389Z,30.46
2018-06-27T11:04:16.172Z,29.09
2018-06-27T11:06:47.695Z,29.45
2018-06-27T11:09:18.938Z,29.18
2018-06-27T11:11:49.400Z,28.31
2018-06-27T11:14:19.688Z,28.12
2018-06-27T11:16:53.030Z,28.53
2018-06-27T11:19:26.310Z,29.29
2018-06-27T11:22:03.420Z,28.10
2018-06-27T11:24:35.021Z,27.94
2018-06-27T11:27:14.885Z,26.28
2018-06-27T11:29:53.206Z,25.85
2018-06-27T11:32:24.337Z,25.93
2018-06-27T11:34:54.655Z,26.38
2018-06-27T11:37:26.302Z,26.46
2018-06-27T11:42:41.082Z,26.35
2018-06-27T11:45:18.125Z,25.54
2018-06-27T11:47:49.809Z,25.40
2018-06-27T11:50:24.101Z,25.77
2018-06-27T11:52:55.010Z,25.67
2018-06-27T11:55:27.656Z,26.07
2018-06-27T11:57:59.620Z,25.45
2018-06-27T12:00:33.125Z,26.54
2018-06-27T12:03:03.750Z,26.19
2018-06-27T12:08:31.735Z,25.60
2018-06-27T12:11:04.296Z,25.03
2018-06-27T12:13:36.968Z,25.59
2018-06-27T12:16:18.353Z,25.55
2018-06-27T12:18:51.359Z,26.88
2018-06-27T12:21:27.508Z,28.81
2018-06-27T12:23:59.658Z,27.37
2018-06-27T12:26:35.001Z,26.48
2018-06-27T12:29:14.571Z,25.49
2018-06-27T12:31:45.575Z,24.87
2018-06-27T12:34:20.353Z,25.27
2018-06-27T12:36:53.145Z,25.00
2018-06-27T12:39:23.793Z,24.60
2018-06-27T12:41:56.527Z,24.41
2018-06-27T12:44:27.800Z,23.93
2018-06-27T12:47:02.503Z,23.88
2018-06-27T12:49:38.306Z,24.58
2018-06-27T12:52:10.733Z,24.81
2018-06-27T12:54:43.862Z,24.20
2018-06-27T12:57:19.125Z,25.17
2018-06-27T12:59:51.808Z,25.72
2018-06-27T13:02:23.965Z,26.22
2018-06-27T13:05:03.154Z,26.92
2018-06-27T13:07:46.393Z,26.86
2018-06-27T13:10:22.409Z,26.10
2018-06-27T13:12:56.552Z,26.45
2018-06-27T13:15:36.410Z,28.24
2018-06-27T13:18:24.499Z,28.79
2018-06-27T13:21:00.138Z,29.66
2018-06-27T13:26:18.641Z,28.28
2018-06-27T13:28:59.873Z,28.47
2018-06-27T13:31:31.435Z,27.28
2018-06-27T13:34:04.371Z,27.37
2018-06-27T13:36:36.531Z,27.08
2018-06-27T13:39:13.604Z,28.15
2018-06-27T13:41:49.444Z,27.38
2018-06-27T13:44:23.081Z,28.20
2018-06-27T13:46:58.769Z,27.73
2018-06-27T13:49:31.897Z,27.22
2018-06-27T13:52:04.393Z,27.78
2018-06-27T13:54:47.747Z,28.47
2018-06-27T13:57:21.615Z,28.43
2018-06-27T13:59:55.410Z,29.22
2018-06-27T14:02:29.109Z,29.36
2018-06-27T14:05:05.193Z,29.51
2018-06-27T14:07:37.907Z,28.62
2018-06-27T14:10:15.864Z,28.28
2018-06-27T14:12:50.153Z,26.91
2018-06-27T14:15:24.031Z,26.21
2018-06-27T14:17:55.207Z,26.03
2018-06-27T14:20:26.595Z,25.65
2018-06-27T14:22:57.260Z,26.17
2018-06-27T14:25:28.928Z,26.57
2018-06-27T14:28:01.479Z,28.15
2018-06-27T14:33:36.486Z,27.42
2018-06-27T14:36:11.375Z,27.79
2018-06-27T14:38:44.765Z,26.98
2018-06-27T14:41:19.534Z,26.42
2018-06-27T14:43:53.286Z,26.08
2018-06-27T14:46:27.696Z,25.49
2018-06-27T14:48:58.893Z,26.28
2018-06-27T14:51:29.677Z,25.95
2018-06-27T14:54:04.338Z,26.14
2018-06-27T14:56:37.632Z,26.03
2018-06-27T14:59:09.534Z,25.98
2018-06-27T15:01:44.374Z,26.27
2018-06-27T15:04:20.470Z,26.89
2018-06-27T15:06:53.214Z,26.76
2018-06-27T15:09:30.615Z,25.67
2018-06-27T15:12:02.235Z,25.91
2018-06-27T15:14:35.557Z,25.05
2018-06-27T15:17:08.317Z,25.32
2018-06-27T15:19:46.621Z,26.00
2018-06-27T15:25:22.068Z,26.09
2018-06-27T15:27:55.070Z,25.97
2018-06-27T15:30:28.022Z,24.38
2018-06-27T15:33:00.310Z,24.47
2018-06-27T15:35:32.108Z,23.96
2018-06-27T15:38:14.575Z,23.11
2018-06-27T15:40:48.466Z,20.99
2018-06-27T15:43:20.647Z,21.36
2018-06-27T15:45:53.585Z,21.22
2018-06-27T15:48:28.897Z,21.31
2018-06-27T15:51:02.520Z,22.30
2018-06-27T15:53:35.241Z,21.82
2018-06-27T15:56:10.184Z,22.50
2018-06-27T15:58:47.188Z,22.79
2018-06-27T16:01:24.115Z,22.92
2018-06-27T16:03:59.758Z,23.03
2018-06-27T16:06:30.250Z,23.38
2018-06-27T16:09:02.900Z,23.62
2018-06-27T16:11:36.336Z,24.17
2018-06-27T16:14:13.315Z,24.93
2018-06-27T16:16:49.455Z,25.31
2018-06-27T16:19:36.027Z,24.84
2018-06-27T16:22:10.323Z,25.37
2018-06-27T16:24:44.234Z,27.00
2018-06-27T16:27:19.025Z,27.72
2018-06-27T16:30:07.326Z,27.60
2018-06-27T16:32:45.478Z,28.67
2018-06-27T16:35:18.857Z,27.86
2018-06-27T16:37:53.059Z,28.30
2018-06-27T16:40:24.494Z,27.03
2018-06-27T16:42:56.897Z,27.23
2018-06-27T16:45:33.840Z,28.32
2018-06-27T16:48:06.249Z,28.31
2018-06-27T16:50:50.300Z,28.50
2018-06-27T16:53:22.573Z,28.56
2018-06-27T16:55:56.260Z,27.95
2018-06-27T16:58:29.617Z,28.54
2018-06-27T17:01:03.592Z,28.47
2018-06-27T17:03:47.721Z,29.02
2018-06-27T17:06:21.664Z,29.42
2018-06-27T17:08:53.807Z,28.80
2018-06-27T17:11:31.293Z,29.15
2018-06-27T17:14:08.901Z,29.31
2018-06-27T17:16:58.325Z,29.84
2018-06-27T17:19:50.659Z,29.07
2018-06-27T17:22:24.286Z,29.89
2018-06-27T17:25:01.324Z,29.77
2018-06-27T17:27:33.395Z,29.75
2018-06-27T17:30:25.241Z,29.69
2018-06-27T17:33:04.199Z,29.80
2018-06-27T17:35:44.381Z,29.11
2018-06-27T17:38:22.272Z,29.05
2018-06-27T17:41:00.627Z,29.28
2018-06-27T17:43:36.353Z,29.18
2018-06-27T17:46:20.258Z,29.52
2018-06-27T17:48:58.675Z,29.97
2018-06-27T17:51:33.366Z,30.59
2018-06-27T17:54:05.391Z,30.13
2018-06-27T17:56:37.439Z,30.20
2018-06-27T17:59:15.382Z,30.07
2018-06-27T18:01:55.995Z,29.91
2018-06-27T18:04:31.219Z,30.31
2018-06-27T18:07:11.412Z,30.24
2018-06-27T18:09:46.509Z,30.55
2018-06-27T18:12:22.928Z,30.33
2018-06-27T18:14:58.237Z,30.60
2018-06-27T18:17:37.526Z,30.15
2018-06-27T18:20:14.485Z,30.65
2018-06-27T18:22:46.603Z,31.27
2018-06-27T18:25:28.326Z,31.74
2018-06-27T18:28:14.652Z,31.18
2018-06-27T18:30:59.416Z,30.78
2018-06-27T18:33:31.415Z,31.03
2018-06-27T18:36:05.671Z,31.81
2018-06-27T18:38:41.770Z,30.81
2018-06-27T18:41:14.001Z,31.25
2018-06-27T18:43:46.740Z,30.80
2018-06-27T18:46:47.773Z,31.34
2018-06-27T18:49:21.649Z,31.59
2018-06-27T18:51:57.532Z,31.68
2018-06-27T18:54:27.790Z,31.17
2018-06-27T18:57:02.435Z,32.05
2018-06-27T18:59:35.764Z,31.55
2018-06-27T19:02:20.624Z,31.54
2018-06-27T19:04:57.326Z,31.42
2018-06-27T19:07:31.788Z,32.42
2018-06-27T19:10:05.956Z,32.38
2018-06-27T19:12:53.692Z,31.85
2018-06-27T19:15:34.010Z,32.17
2018-06-27T19:18:08.419Z,32.32
2018-06-27T19:20:44.441Z,32.10
2018-06-27T19:23:15.931Z,32.62
2018-06-27T19:25:48.801Z,32.71
2018-06-27T19:36:18.931Z,32.86
2018-06-27T19:38:51.469Z,34.28
2018-06-27T19:41:23.089Z,34.08
2018-06-27T19:43:58.249Z,34.50
2018-06-27T19:46:33.583Z,34.68
2018-06-27T19:49:07.435Z,34.31
2018-06-27T19:51:40.460Z,34.88
2018-06-27T19:54:16.584Z,35.11
2018-06-27T20:02:19.451Z,34.42
2018-06-27T20:10:34.322Z,35.38
2018-06-27T20:13:16.295Z,35.84
2018-06-27T20:15:49.517Z,35.37
2018-06-27T20:18:22.352Z,35.83
2018-06-27T20:20:59.589Z,35.20
2018-06-27T20:23:32.495Z,35.72
2018-06-27T20:26:03.465Z,35.85
2018-06-27T20:28:39.510Z,36.24
2018-06-27T20:31:20.091Z,35.38
2018-06-27T20:33:55.584Z,36.23
2018-06-27T20:36:26.692Z,35.71
2018-06-27T20:38:59.756Z,35.75
2018-06-27T20:41:31.644Z,35.70
2018-06-27T20:44:07.883Z,36.38
2018-06-27T20:46:45.092Z,35.78
2018-06-27T20:49:18.278Z,36.67
2018-06-27T20:51:53.345Z,36.85
2018-06-27T20:54:24.654Z,36.66
2018-06-27T20:57:00.217Z,37.18
2018-06-27T20:59:31.305Z,36.79
2018-06-27T21:02:10.607Z,37.08
2018-06-27T21:04:44.582Z,37.54
2018-06-27T21:07:18.436Z,37.54
2018-06-27T21:09:53.491Z,37.16
2018-06-27T21:12:25.229Z,37.74
2018-06-27T21:14:58.520Z,36.81
2018-06-27T21:17:35.689Z,37.85
2018-06-27T21:20:11.349Z,37.21
2018-06-27T21:22:43.453Z,36.97
2018-06-27T21:25:17.702Z,38.04
2018-06-27T21:27:52.451Z,38.17
2018-06-27T21:30:26.764Z,37.53
2018-06-27T21:32:59.135Z,37.47
2018-06-27T21:35:29.790Z,37.91
2018-06-27T21:38:10.422Z,38.01
2018-06-27T21:40:49.466Z,37.82
2018-06-27T21:43:22.764Z,37.01
2018-06-27T21:45:58.029Z,37.92
2018-06-27T21:48:31.987Z,37.14
2018-06-27T21:51:04.676Z,37.20
2018-06-27T21:53:39.245Z,38.18
2018-06-27T21:56:12.137Z,37.76
2018-06-27T21:58:42.707Z,37.84
2018-06-27T22:01:15.867Z,37.76
2018-06-27T22:03:48.926Z,37.78
2018-06-27T22:06:21.416Z,38.52
2018-06-27T22:08:54.615Z,38.24
2018-06-27T22:11:26.682Z,38.27
2018-06-27T22:13:58.769Z,38.33
2018-06-27T22:16:32.596Z,38.83
2018-06-27T22:19:03.940Z,38.99
2018-06-27T22:21:43.166Z,38.92
2018-06-27T22:24:15.484Z,39.07
2018-06-27T22:26:49.186Z,39.47
2018-06-27T22:29:26.527Z,38.82
2018-06-27T22:31:58.813Z,39.39
2018-06-27T22:34:31.525Z,39.91
2018-06-27T22:37:02.968Z,40.02
2018-06-27T22:39:33.573Z,39.59
2018-06-27T22:42:04.039Z,40.23
2018-06-27T22:44:35.437Z,40.39
2018-06-27T22:47:14.062Z,40.19
2018-06-27T22:49:47.743Z,39.52
2018-06-27T22:52:19.589Z,40.32
2018-06-27T22:54:53.393Z,39.67
2018-06-27T22:57:25.561Z,40.53
2018-06-27T22:59:57.508Z,40.45
2018-06-27T23:02:40.189Z,40.67
2018-06-27T23:05:13.755Z,39.99
2018-06-27T23:07:46.271Z,40.08
2018-06-27T23:10:20.416Z,40.87
2018-06-27T23:12:54.108Z,40.57
2018-06-27T23:15:26.413Z,39.75
2018-06-27T23:18:03.740Z,40.46
2018-06-27T23:20:34.949Z,40.09
2018-06-27T23:23:09.503Z,40.73
2018-06-27T23:25:40.008Z,40.29
2018-06-27T23:28:13.716Z,39.98
2018-06-27T23:30:46.169Z,39.71
2018-06-27T23:33:16.929Z,40.21
2018-06-27T23:35:47.594Z,40.08
2018-06-27T23:38:18.043Z,39.60
2018-06-27T23:40:50.909Z,39.79
2018-06-27T23:43:24.245Z,40.56
2018-06-27T23:46:02.594Z,40.18
2018-06-27T23:48:35.949Z,40.45
2018-06-27T23:51:08.685Z,39.22
2018-06-27T23:53:38.938Z,39.65
2018-06-27T23:56:25.555Z,40.36
2018-06-27T23:58:57.291Z,39.81
